createdAt,value
2019-02-15T00:00:42.457Z,0.00
2019-02-15T00:01:42.483Z,0.00
2019-02-15T00:02:42.511Z,0.00
2019-02-15T00:03:42.539Z,0.00
2019-02-15T00:04:42.568Z,0.00
2019-02-15T00:05:42.589Z,0.00
2019-02-15T00:06:42.620Z,0.00
2019-02-15T00:07:42.651Z,0.00
2019-02-15T00:08:42.676Z,0.00
2019-02-15T00:09:42.704Z,0.00
2019-02-15T00:10:42.727Z,0.00
2019-02-15T00:11:42.756Z,0.00
2019-02-15T00:12:42.785Z,0.00
2019-02-15T00:13:42.810Z,0.00
2019-02-15T00:14:42.836Z,0.00
2019-02-15T00:15:42.866Z,0.00
2019-02-15T00:16:42.892Z,0.00
2019-02-15T00:17:42.920Z,0.00
2019-02-15T00:18:42.952Z,0.00
2019-02-15T00:19:42.982Z,0.00
2019-02-15T00:20:43.002Z,0.00
2019-02-15T00:21:43.031Z,0.00
2019-02-15T00:22:43.055Z,0.00
2019-02-15T00:23:43.091Z,0.00
2019-02-15T00:24:43.111Z,0.00
2019-02-15T00:25:43.138Z,0.00
2019-02-15T00:26:43.172Z,0.00
2019-02-15T00:27:43.192Z,0.00
2019-02-15T00:28:43.224Z,0.00
2019-02-15T00:29:43.262Z,0.00
2019-02-15T00:30:43.273Z,0.00
2019-02-15T00:31:43.301Z,0.00
2019-02-15T00:32:43.331Z,0.00
2019-02-15T00:33:43.355Z,0.00
2019-02-15T00:34:43.384Z,0.00
2019-02-15T00:35:43.410Z,0.00
2019-02-15T00:36:43.438Z,0.00
2019-02-15T00:37:43.466Z,0.00
2019-02-15T00:38:43.492Z,0.00
2019-02-15T00:39:43.520Z,0.00
2019-02-15T00:40:43.550Z,0.00
2019-02-15T00:41:43.574Z,0.00
2019-02-15T00:42:43.602Z,0.00
2019-02-15T00:43:43.629Z,0.00
2019-02-15T00:44:43.657Z,0.00
2019-02-15T00:45:43.684Z,0.00
2019-02-15T00:46:43.708Z,0.00
2019-02-15T00:47:43.738Z,0.00
2019-02-15T00:48:43.765Z,0.00
2019-02-15T00:49:43.791Z,0.00
2019-02-15T00:50:43.819Z,0.00
2019-02-15T00:51:43.846Z,0.00
2019-02-15T00:52:43.876Z,0.00
2019-02-15T00:53:43.902Z,0.00
2019-02-15T00:54:43.931Z,0.00
2019-02-15T00:55:43.955Z,0.00
2019-02-15T00:56:43.982Z,0.00
2019-02-15T00:57:44.011Z,0.00
2019-02-15T00:58:44.035Z,0.00
2019-02-15T00:59:44.066Z,0.00
2019-02-15T01:00:44.095Z,0.00
2019-02-15T01:01:44.120Z,0.00
2019-02-15T01:02:44.143Z,0.00
2019-02-15T01:03:44.172Z,0.00
2019-02-15T01:04:44.200Z,0.00
2019-02-15T01:05:44.227Z,0.00
2019-02-15T01:06:44.255Z,0.00
2019-02-15T01:07:44.283Z,0.00
2019-02-15T01:08:44.311Z,0.00
2019-02-15T01:09:44.334Z,0.00
2019-02-15T01:10:44.362Z,0.00
2019-02-15T01:11:44.392Z,0.00
2019-02-15T01:12:44.418Z,0.00
2019-02-15T01:13:44.445Z,0.00
2019-02-15T01:14:44.471Z,0.00
2019-02-15T01:15:44.505Z,0.00
2019-02-15T01:16:44.528Z,0.00
2019-02-15T01:17:44.551Z,0.00
2019-02-15T01:18:44.581Z,0.00
2019-02-15T01:19:44.610Z,0.00
2019-02-15T01:20:44.638Z,0.00
2019-02-15T01:21:44.661Z,0.00
2019-02-15T01:22:44.693Z,0.00
2019-02-15T01:23:44.714Z,0.00
2019-02-15T01:24:44.744Z,0.00
2019-02-15T01:25:44.771Z,0.00
2019-02-15T01:26:44.798Z,0.00
2019-02-15T01:27:44.823Z,0.00
2019-02-15T01:28:44.854Z,0.00
2019-02-15T01:29:44.879Z,0.00
2019-02-15T01:30:44.908Z,0.00
2019-02-15T01:31:44.934Z,0.00
2019-02-15T01:32:44.959Z,0.00
2019-02-15T01:33:44.987Z,0.00
2019-02-15T01:34:45.013Z,0.00
2019-02-15T01:35:45.043Z,0.00
2019-02-15T01:36:45.069Z,0.00
2019-02-15T01:37:45.095Z,0.00
2019-02-15T01:38:45.121Z,0.00
2019-02-15T01:39:45.153Z,0.00
2019-02-15T01:40:45.180Z,0.00
2019-02-15T01:41:45.202Z,0.00
2019-02-15T01:42:45.230Z,0.00
2019-02-15T01:43:45.261Z,0.00
2019-02-15T01:44:45.284Z,0.00
2019-02-15T01:45:45.313Z,0.00
2019-02-15T01:46:45.340Z,0.00
2019-02-15T01:47:45.365Z,0.00
2019-02-15T01:48:45.396Z,0.00
2019-02-15T01:49:45.424Z,0.00
2019-02-15T01:50:45.447Z,0.00
2019-02-15T01:51:45.478Z,0.00
2019-02-15T01:52:45.503Z,0.00
2019-02-15T01:53:45.531Z,0.00
2019-02-15T01:54:45.559Z,0.00
2019-02-15T01:55:45.589Z,0.00
2019-02-15T01:56:45.613Z,0.00
2019-02-15T01:57:45.640Z,0.00
2019-02-15T01:58:45.675Z,0.00
2019-02-15T01:59:45.692Z,0.00
2019-02-15T02:00:45.718Z,0.00
2019-02-15T02:01:45.745Z,0.00
2019-02-15T02:02:45.774Z,0.00
2019-02-15T02:03:45.801Z,0.00
2019-02-15T02:04:45.830Z,0.00
2019-02-15T02:05:45.857Z,0.00
2019-02-15T02:06:45.884Z,0.00
2019-02-15T02:07:45.910Z,0.00
2019-02-15T02:08:45.940Z,0.00
2019-02-15T02:09:45.962Z,0.00
2019-02-15T02:10:45.990Z,0.00
2019-02-15T02:11:46.018Z,0.00
2019-02-15T02:12:46.048Z,0.00
2019-02-15T02:13:49.649Z,0.00
2019-02-15T02:14:46.101Z,0.00
2019-02-15T02:15:46.134Z,0.00
2019-02-15T02:16:46.158Z,0.00
2019-02-15T02:17:46.181Z,0.00
2019-02-15T02:18:46.208Z,0.00
2019-02-15T02:19:46.236Z,0.00
2019-02-15T02:20:46.264Z,0.00
2019-02-15T02:21:46.292Z,0.00
2019-02-15T02:22:46.317Z,0.00
2019-02-15T02:23:46.348Z,0.00
2019-02-15T02:24:46.373Z,0.00
2019-02-15T02:25:46.399Z,0.00
2019-02-15T02:26:46.427Z,0.00
2019-02-15T02:27:46.453Z,0.00
2019-02-15T02:28:46.483Z,0.00
2019-02-15T02:29:46.509Z,0.00
2019-02-15T02:30:46.535Z,0.00
2019-02-15T02:31:46.564Z,0.00
2019-02-15T02:32:46.595Z,0.00
2019-02-15T02:33:46.622Z,0.00
2019-02-15T02:34:46.652Z,0.00
2019-02-15T02:35:46.676Z,0.00
2019-02-15T02:36:46.704Z,0.00
2019-02-15T02:37:46.728Z,0.00
2019-02-15T02:38:46.757Z,0.00
2019-02-15T02:39:46.782Z,0.00
2019-02-15T02:40:46.810Z,0.00
2019-02-15T02:41:46.844Z,0.00
2019-02-15T02:42:46.866Z,0.00
2019-02-15T02:43:46.898Z,0.00
2019-02-15T02:44:46.919Z,0.00
2019-02-15T02:45:46.954Z,0.00
2019-02-15T02:46:46.977Z,0.00
2019-02-15T02:47:47.004Z,0.00
2019-02-15T02:48:47.030Z,0.00
2019-02-15T02:49:47.055Z,0.00
2019-02-15T02:50:47.086Z,0.00
2019-02-15T02:51:47.117Z,0.00
2019-02-15T02:52:47.147Z,0.00
2019-02-15T02:53:47.172Z,0.00
2019-02-15T02:54:47.196Z,0.00
2019-02-15T02:55:47.225Z,0.00
2019-02-15T02:56:47.251Z,0.00
2019-02-15T02:57:47.278Z,0.00
2019-02-15T02:58:47.303Z,0.00
2019-02-15T02:59:47.334Z,0.00
2019-02-15T03:00:47.364Z,0.00
2019-02-15T03:01:47.388Z,0.00
2019-02-15T03:02:47.415Z,0.00
2019-02-15T03:03:47.441Z,0.00
2019-02-15T03:04:47.471Z,0.00
2019-02-15T03:05:47.497Z,0.00
2019-02-15T03:06:47.527Z,0.00
2019-02-15T03:07:47.555Z,0.00
2019-02-15T03:08:47.584Z,0.00
2019-02-15T03:09:47.620Z,0.00
2019-02-15T03:10:47.635Z,0.00
2019-02-15T03:11:47.666Z,0.00
2019-02-15T03:12:47.693Z,0.00
2019-02-15T03:13:47.716Z,0.00
2019-02-15T03:14:47.745Z,0.00
2019-02-15T03:15:47.776Z,0.00
2019-02-15T03:16:47.801Z,0.00
2019-02-15T03:17:47.826Z,0.00
2019-02-15T03:18:47.864Z,0.00
2019-02-15T03:19:47.883Z,0.00
2019-02-15T03:20:47.915Z,0.00
2019-02-15T03:21:47.937Z,0.00
2019-02-15T03:22:47.972Z,0.00
2019-02-15T03:23:47.995Z,0.00
2019-02-15T03:24:48.022Z,0.00
2019-02-15T03:25:48.055Z,0.00
2019-02-15T03:26:48.076Z,0.00
2019-02-15T03:27:48.104Z,0.00
2019-02-15T03:28:48.131Z,0.00
2019-02-15T03:29:48.161Z,0.00
2019-02-15T03:30:48.274Z,0.00
2019-02-15T03:31:48.241Z,0.00
2019-02-15T03:32:48.247Z,0.00
2019-02-15T03:33:48.271Z,0.00
2019-02-15T03:34:48.294Z,0.00
2019-02-15T03:35:48.324Z,0.00
2019-02-15T03:36:48.353Z,0.00
2019-02-15T03:37:48.377Z,0.00
2019-02-15T03:38:48.407Z,0.00
2019-02-15T03:39:48.436Z,0.00
2019-02-15T03:40:48.466Z,0.00
2019-02-15T03:41:48.488Z,0.00
2019-02-15T03:42:48.515Z,0.00
2019-02-15T03:43:48.542Z,0.00
2019-02-15T03:44:48.570Z,0.00
2019-02-15T03:45:48.597Z,0.00
2019-02-15T03:46:48.628Z,0.00
2019-02-15T03:47:48.656Z,0.00
2019-02-15T03:48:48.686Z,0.00
2019-02-15T03:49:48.708Z,0.00
2019-02-15T03:50:48.741Z,0.00
2019-02-15T03:51:48.776Z,0.00
2019-02-15T03:52:48.791Z,0.00
2019-02-15T03:53:48.823Z,0.00
2019-02-15T03:54:48.846Z,0.00
2019-02-15T03:55:48.873Z,0.00
2019-02-15T03:56:48.901Z,0.00
2019-02-15T03:57:48.928Z,0.00
2019-02-15T03:58:48.957Z,0.00
2019-02-15T03:59:48.981Z,0.00
2019-02-15T04:00:49.011Z,0.00
2019-02-15T04:01:49.039Z,0.00
2019-02-15T04:02:49.065Z,0.00
2019-02-15T04:03:49.091Z,0.00
2019-02-15T04:04:49.119Z,0.00
2019-02-15T04:05:49.149Z,0.00
2019-02-15T04:06:49.173Z,0.00
2019-02-15T04:07:49.200Z,0.00
2019-02-15T04:08:49.229Z,0.00
2019-02-15T04:09:49.255Z,0.00
2019-02-15T04:10:49.281Z,0.00
2019-02-15T04:11:49.311Z,0.00
2019-02-15T04:12:49.337Z,0.00
2019-02-15T04:13:49.363Z,0.00
2019-02-15T04:14:49.399Z,0.00
2019-02-15T04:15:49.421Z,0.00
2019-02-15T04:16:49.446Z,0.00
2019-02-15T04:17:49.474Z,0.00
2019-02-15T04:18:49.507Z,0.00
2019-02-15T04:19:49.527Z,0.00
2019-02-15T04:20:49.558Z,0.00
2019-02-15T04:21:49.582Z,0.00
2019-02-15T04:22:49.612Z,0.00
2019-02-15T04:23:49.641Z,0.00
2019-02-15T04:24:49.663Z,0.00
2019-02-15T04:25:49.689Z,0.00
2019-02-15T04:26:49.717Z,0.00
2019-02-15T04:27:49.748Z,0.00
2019-02-15T04:28:49.772Z,0.00
2019-02-15T04:29:49.800Z,0.00
2019-02-15T04:30:49.831Z,0.00
2019-02-15T04:31:49.856Z,0.00
2019-02-15T04:32:49.881Z,0.00
2019-02-15T04:33:49.913Z,0.00
2019-02-15T04:34:49.935Z,0.00
2019-02-15T04:35:49.970Z,0.00
2019-02-15T04:36:49.993Z,0.00
2019-02-15T04:37:50.017Z,0.00
2019-02-15T04:38:50.044Z,0.00
2019-02-15T04:39:50.074Z,0.00
2019-02-15T04:40:50.100Z,0.00
2019-02-15T04:41:50.129Z,0.00
2019-02-15T04:42:50.154Z,0.00
2019-02-15T04:43:50.184Z,0.00
2019-02-15T04:44:50.209Z,0.00
2019-02-15T04:45:50.239Z,0.00
2019-02-15T04:46:50.331Z,0.00
2019-02-15T04:47:50.290Z,0.00
2019-02-15T04:48:50.318Z,0.00
2019-02-15T04:49:50.348Z,0.00
2019-02-15T04:50:50.377Z,0.00
2019-02-15T04:51:50.399Z,0.00
2019-02-15T04:52:50.427Z,0.00
2019-02-15T04:53:50.455Z,0.00
2019-02-15T04:54:50.489Z,0.00
2019-02-15T04:55:50.510Z,0.00
2019-02-15T04:56:50.538Z,0.00
2019-02-15T04:57:50.563Z,0.00
2019-02-15T04:58:50.589Z,0.00
2019-02-15T04:59:50.619Z,0.00
2019-02-15T05:00:50.648Z,0.00
2019-02-15T05:01:50.686Z,0.00
2019-02-15T05:02:50.701Z,0.00
2019-02-15T05:03:50.726Z,0.00
2019-02-15T05:04:50.755Z,0.00
2019-02-15T05:05:50.784Z,0.00
2019-02-15T05:06:50.811Z,0.00
2019-02-15T05:07:50.842Z,0.00
2019-02-15T05:08:50.868Z,0.00
2019-02-15T05:09:50.892Z,0.00
2019-02-15T05:10:50.921Z,0.00
2019-02-15T05:11:50.950Z,0.00
2019-02-15T05:12:51.021Z,0.00
2019-02-15T05:13:51.001Z,0.00
2019-02-15T05:14:53.357Z,0.00
2019-02-15T05:15:51.057Z,0.00
2019-02-15T05:16:51.084Z,0.00
2019-02-15T05:17:51.113Z,0.00
2019-02-15T05:18:51.140Z,0.00
2019-02-15T05:19:51.183Z,0.00
2019-02-15T05:20:51.219Z,0.00
2019-02-15T05:21:51.221Z,0.00
2019-02-15T05:22:51.260Z,0.00
2019-02-15T05:23:51.284Z,0.00
2019-02-15T05:24:51.303Z,0.00
2019-02-15T05:25:51.329Z,0.00
2019-02-15T05:26:51.357Z,0.00
2019-02-15T05:27:51.387Z,0.00
2019-02-15T05:28:51.419Z,0.00
2019-02-15T05:29:51.445Z,0.00
2019-02-15T05:30:51.468Z,0.00
2019-02-15T05:31:51.495Z,0.00
2019-02-15T05:32:51.522Z,0.00
2019-02-15T05:33:51.549Z,0.00
2019-02-15T05:34:51.579Z,0.00
2019-02-15T05:35:51.610Z,0.00
2019-02-15T05:36:51.633Z,0.00
2019-02-15T05:37:51.657Z,0.00
2019-02-15T05:38:51.691Z,0.00
2019-02-15T05:39:51.720Z,0.00
2019-02-15T05:40:51.740Z,0.00
2019-02-15T05:41:51.767Z,0.00
2019-02-15T05:42:51.799Z,0.00
2019-02-15T05:43:51.826Z,0.00
2019-02-15T05:44:51.850Z,0.00
2019-02-15T05:45:51.878Z,0.00
2019-02-15T05:46:51.904Z,0.00
2019-02-15T05:47:51.932Z,0.00
2019-02-15T05:48:51.960Z,0.00
2019-02-15T05:49:51.990Z,0.00
2019-02-15T05:50:52.014Z,0.00
2019-02-15T05:51:52.042Z,0.00
2019-02-15T05:52:52.071Z,0.00
2019-02-15T05:53:52.097Z,0.00
2019-02-15T05:54:52.130Z,0.00
2019-02-15T05:55:52.153Z,5.63
2019-02-15T05:56:52.180Z,5.63
2019-02-15T05:57:52.207Z,5.63
2019-02-15T05:58:52.233Z,5.63
2019-02-15T05:59:52.263Z,5.63
2019-02-15T06:00:52.290Z,5.63
2019-02-15T06:01:52.326Z,5.63
2019-02-15T06:02:52.344Z,5.63
2019-02-15T06:03:52.369Z,5.63
2019-02-15T06:04:52.399Z,11.25
2019-02-15T06:05:52.433Z,11.25
2019-02-15T06:06:52.451Z,11.25
2019-02-15T06:07:52.480Z,11.25
2019-02-15T06:08:52.511Z,11.25
2019-02-15T06:09:52.533Z,11.25
2019-02-15T06:10:52.560Z,16.88
2019-02-15T06:11:52.589Z,16.88
2019-02-15T06:12:52.616Z,16.88
2019-02-15T06:13:52.648Z,16.88
2019-02-15T06:14:52.670Z,16.88
2019-02-15T06:15:52.699Z,16.88
2019-02-15T06:16:52.726Z,22.50
2019-02-15T06:17:52.752Z,22.50
2019-02-15T06:18:52.779Z,22.50
2019-02-15T06:19:52.811Z,28.13
2019-02-15T06:20:52.834Z,28.13
2019-02-15T06:21:52.862Z,28.13
2019-02-15T06:22:52.890Z,28.13
2019-02-15T06:23:52.917Z,33.75
2019-02-15T06:24:52.947Z,33.75
2019-02-15T06:25:53.048Z,39.38
2019-02-15T06:26:53.005Z,39.38
2019-02-15T06:27:53.031Z,45.00
2019-02-15T06:28:53.055Z,45.00
2019-02-15T06:29:53.082Z,45.00
2019-02-15T06:30:53.110Z,50.63
2019-02-15T06:31:53.140Z,56.25
2019-02-15T06:32:53.181Z,56.25
2019-02-15T06:33:53.194Z,50.63
2019-02-15T06:34:53.221Z,56.25
2019-02-15T06:35:53.248Z,50.63
2019-02-15T06:36:53.274Z,50.63
2019-02-15T06:37:53.324Z,50.63
2019-02-15T06:38:53.331Z,56.25
2019-02-15T06:39:53.356Z,56.25
2019-02-15T06:40:53.384Z,61.88
2019-02-15T06:41:53.410Z,61.88
2019-02-15T06:42:53.439Z,61.88
2019-02-15T06:43:53.466Z,67.50
2019-02-15T06:44:53.493Z,67.50
2019-02-15T06:45:53.522Z,67.50
2019-02-15T06:46:53.561Z,67.50
2019-02-15T06:47:53.578Z,67.50
2019-02-15T06:48:53.609Z,67.50
2019-02-15T06:49:53.633Z,67.50
2019-02-15T06:50:53.662Z,67.50
2019-02-15T06:51:53.692Z,73.13
2019-02-15T06:52:53.715Z,73.13
2019-02-15T06:53:53.743Z,73.13
2019-02-15T06:54:53.771Z,73.13
2019-02-15T06:55:53.801Z,73.13
2019-02-15T06:56:53.826Z,78.75
2019-02-15T06:57:53.856Z,78.75
2019-02-15T06:58:53.880Z,78.75
2019-02-15T06:59:53.915Z,84.38
2019-02-15T07:00:53.941Z,84.38
2019-02-15T07:01:53.964Z,90.00
2019-02-15T07:02:53.993Z,90.00
2019-02-15T07:03:54.020Z,90.00
2019-02-15T07:04:54.047Z,90.00
2019-02-15T07:05:54.077Z,95.63
2019-02-15T07:06:54.102Z,95.63
2019-02-15T07:07:54.134Z,95.63
2019-02-15T07:08:54.159Z,95.63
2019-02-15T07:09:54.186Z,95.63
2019-02-15T07:10:54.215Z,95.63
2019-02-15T07:11:54.244Z,95.63
2019-02-15T07:12:54.277Z,95.63
2019-02-15T07:13:54.299Z,95.63
2019-02-15T07:14:54.326Z,101.25
2019-02-15T07:15:54.357Z,106.88
2019-02-15T07:16:54.382Z,106.88
2019-02-15T07:17:54.412Z,101.25
2019-02-15T07:18:54.438Z,101.25
2019-02-15T07:19:54.467Z,106.88
2019-02-15T07:20:54.493Z,106.88
2019-02-15T07:21:54.520Z,112.50
2019-02-15T07:22:54.548Z,118.13
2019-02-15T07:23:54.580Z,123.75
2019-02-15T07:24:54.605Z,123.75
2019-02-15T07:25:54.635Z,118.13
2019-02-15T07:26:54.669Z,123.75
2019-02-15T07:27:54.697Z,129.38
2019-02-15T07:28:54.719Z,123.75
2019-02-15T07:29:54.748Z,129.38
2019-02-15T07:30:54.776Z,129.38
2019-02-15T07:31:54.802Z,123.75
2019-02-15T07:32:54.831Z,123.75
2019-02-15T07:33:54.857Z,123.75
2019-02-15T07:34:54.887Z,118.13
2019-02-15T07:35:54.913Z,112.50
2019-02-15T07:36:54.942Z,112.50
2019-02-15T07:37:54.971Z,112.50
2019-02-15T07:38:55.000Z,112.50
2019-02-15T07:39:55.028Z,106.88
2019-02-15T07:40:55.059Z,101.25
2019-02-15T07:41:55.118Z,101.25
2019-02-15T07:42:55.118Z,106.88
2019-02-15T07:43:55.147Z,106.88
2019-02-15T07:44:55.167Z,101.25
2019-02-15T07:45:55.196Z,106.88
2019-02-15T07:46:55.223Z,106.88
2019-02-15T07:47:55.253Z,106.88
2019-02-15T07:48:55.283Z,106.88
2019-02-15T07:49:55.310Z,106.88
2019-02-15T07:50:55.337Z,106.88
2019-02-15T07:51:55.365Z,106.88
2019-02-15T07:52:55.393Z,106.88
2019-02-15T07:53:55.422Z,106.88
2019-02-15T07:54:55.451Z,106.88
2019-02-15T07:55:55.479Z,106.88
2019-02-15T07:56:55.506Z,106.88
2019-02-15T07:57:55.539Z,106.88
2019-02-15T07:58:55.563Z,112.50
2019-02-15T07:59:55.593Z,101.25
2019-02-15T08:00:55.619Z,106.88
2019-02-15T08:02:01.616Z,112.50
2019-02-15T08:02:55.675Z,112.50
2019-02-15T08:03:55.705Z,112.50
2019-02-15T08:04:55.739Z,112.50
2019-02-15T08:05:55.760Z,112.50
2019-02-15T08:06:55.794Z,112.50
2019-02-15T08:07:55.817Z,112.50
2019-02-15T08:08:55.849Z,112.50
2019-02-15T08:09:55.871Z,112.50
2019-02-15T08:10:55.899Z,118.13
2019-02-15T08:11:55.933Z,112.50
2019-02-15T08:12:55.972Z,118.13
2019-02-15T08:13:55.985Z,112.50
2019-02-15T08:14:56.013Z,112.50
2019-02-15T08:15:56.042Z,118.13
2019-02-15T08:16:56.070Z,123.75
2019-02-15T08:17:56.098Z,112.50
2019-02-15T08:18:56.128Z,123.75
2019-02-15T08:19:56.159Z,123.75
2019-02-15T08:20:56.186Z,118.13
2019-02-15T08:21:56.222Z,129.38
2019-02-15T08:22:56.239Z,123.75
2019-02-15T08:23:56.279Z,118.13
2019-02-15T08:24:56.296Z,123.75
2019-02-15T08:25:56.323Z,129.38
2019-02-15T08:26:56.353Z,118.13
2019-02-15T08:27:56.382Z,129.38
2019-02-15T08:28:56.410Z,140.63
2019-02-15T08:29:56.437Z,157.50
2019-02-15T08:30:56.474Z,129.38
2019-02-15T08:31:56.495Z,123.75
2019-02-15T08:32:56.526Z,129.38
2019-02-15T08:33:56.553Z,140.63
2019-02-15T08:34:56.583Z,157.50
2019-02-15T08:35:56.612Z,151.88
2019-02-15T08:36:56.639Z,146.25
2019-02-15T08:37:56.666Z,157.50
2019-02-15T08:38:56.696Z,163.13
2019-02-15T08:39:56.723Z,174.38
2019-02-15T08:40:56.753Z,168.75
2019-02-15T08:42:01.334Z,174.38
2019-02-15T08:42:56.815Z,180.00
2019-02-15T08:43:56.837Z,180.00
2019-02-15T08:44:56.872Z,185.63
2019-02-15T08:46:01.566Z,180.00
2019-02-15T08:46:56.923Z,185.63
2019-02-15T08:47:56.957Z,196.88
2019-02-15T08:48:56.981Z,196.88
2019-02-15T08:49:57.008Z,191.25
2019-02-15T08:50:57.039Z,196.88
2019-02-15T08:51:57.073Z,185.63
2019-02-15T08:52:57.098Z,174.38
2019-02-15T08:53:57.124Z,180.00
2019-02-15T08:54:57.156Z,163.13
2019-02-15T08:55:57.185Z,180.00
2019-02-15T08:56:57.211Z,168.75
2019-02-15T08:57:57.242Z,174.38
2019-02-15T08:58:57.274Z,174.38
2019-02-15T08:59:57.300Z,180.00
2019-02-15T09:00:57.326Z,185.63
2019-02-15T09:01:57.353Z,202.50
2019-02-15T09:02:57.383Z,196.88
2019-02-15T09:03:57.416Z,202.50
2019-02-15T09:04:57.445Z,208.13
2019-02-15T09:05:57.470Z,213.75
2019-02-15T09:06:57.500Z,208.13
2019-02-15T09:07:57.531Z,208.13
2019-02-15T09:08:57.557Z,219.38
2019-02-15T09:09:57.598Z,208.13
2019-02-15T09:10:57.617Z,219.38
2019-02-15T09:11:57.644Z,213.75
2019-02-15T09:12:57.675Z,213.75
2019-02-15T09:13:57.704Z,225.00
2019-02-15T09:14:57.731Z,219.38
2019-02-15T09:15:57.768Z,213.75
2019-02-15T09:16:57.791Z,225.00
2019-02-15T09:17:57.821Z,219.38
2019-02-15T09:18:57.851Z,225.00
2019-02-15T09:19:57.883Z,219.38
2019-02-15T09:20:57.910Z,219.38
2019-02-15T09:21:57.935Z,225.00
2019-02-15T09:22:57.965Z,213.75
2019-02-15T09:23:57.993Z,219.38
2019-02-15T09:24:58.023Z,230.63
2019-02-15T09:25:58.053Z,213.75
2019-02-15T09:26:58.082Z,213.75
2019-02-15T09:27:58.110Z,225.00
2019-02-15T09:28:58.142Z,241.88
2019-02-15T09:29:58.169Z,247.50
2019-02-15T09:30:58.200Z,247.50
2019-02-15T09:31:58.228Z,264.38
2019-02-15T09:32:58.270Z,258.75
2019-02-15T09:33:58.290Z,236.25
2019-02-15T09:34:58.318Z,253.13
2019-02-15T09:35:58.348Z,247.50
2019-02-15T09:36:58.378Z,225.00
2019-02-15T09:37:58.407Z,219.38
2019-02-15T09:38:58.435Z,230.63
2019-02-15T09:39:58.465Z,213.75
2019-02-15T09:40:58.496Z,219.38
2019-02-15T09:41:58.523Z,225.00
2019-02-15T09:42:58.553Z,219.38
2019-02-15T09:43:58.588Z,230.63
2019-02-15T09:44:58.610Z,230.63
2019-02-15T09:45:58.643Z,236.25
2019-02-15T09:46:58.670Z,230.63
2019-02-15T09:47:58.700Z,219.38
2019-02-15T09:48:58.728Z,230.63
2019-02-15T09:49:58.762Z,230.63
2019-02-15T09:50:58.786Z,202.50
2019-02-15T09:51:58.816Z,213.75
2019-02-15T09:52:58.846Z,213.75
2019-02-15T09:53:58.879Z,230.63
2019-02-15T09:54:58.905Z,253.13
2019-02-15T09:55:58.933Z,253.13
2019-02-15T09:56:58.965Z,241.88
2019-02-15T09:57:58.994Z,241.88
2019-02-15T09:58:59.023Z,258.75
2019-02-15T09:59:59.057Z,275.63
2019-02-15T10:00:59.081Z,270.00
2019-02-15T10:01:59.111Z,270.00
2019-02-15T10:02:59.151Z,270.00
2019-02-15T10:03:59.170Z,275.63
2019-02-15T10:04:59.202Z,298.13
2019-02-15T10:05:59.229Z,303.75
2019-02-15T10:06:59.260Z,320.63
2019-02-15T10:07:59.297Z,331.88
2019-02-15T10:08:59.317Z,315.00
2019-02-15T10:09:59.348Z,320.63
2019-02-15T10:10:59.381Z,331.88
2019-02-15T10:11:59.408Z,292.50
2019-02-15T10:12:59.439Z,337.50
2019-02-15T10:13:59.466Z,348.75
2019-02-15T10:14:59.497Z,309.38
2019-02-15T10:15:59.527Z,298.13
2019-02-15T10:16:59.557Z,309.38
2019-02-15T10:17:59.586Z,320.63
2019-02-15T10:18:59.614Z,348.75
2019-02-15T10:19:59.646Z,309.38
2019-02-15T10:20:59.672Z,292.50
2019-02-15T10:21:59.701Z,326.25
2019-02-15T10:22:59.731Z,309.38
2019-02-15T10:23:59.762Z,331.88
2019-02-15T10:24:59.796Z,298.13
2019-02-15T10:25:59.821Z,309.38
2019-02-15T10:26:59.871Z,331.88
2019-02-15T10:27:59.880Z,348.75
2019-02-15T10:28:59.911Z,348.75
2019-02-15T10:29:59.939Z,360.00
2019-02-15T10:30:59.969Z,343.13
2019-02-15T10:32:00.001Z,337.50
2019-02-15T10:33:00.032Z,337.50
2019-02-15T10:34:00.059Z,337.50
2019-02-15T10:35:00.287Z,360.00
2019-02-15T10:36:00.128Z,376.88
2019-02-15T10:37:00.153Z,365.63
2019-02-15T10:38:00.182Z,360.00
2019-02-15T10:39:00.213Z,360.00
2019-02-15T10:40:00.330Z,365.63
2019-02-15T10:41:00.269Z,354.38
2019-02-15T10:42:00.300Z,326.25
2019-02-15T10:43:00.330Z,348.75
2019-02-15T10:44:00.358Z,371.25
2019-02-15T10:45:00.387Z,331.88
2019-02-15T10:46:00.419Z,315.00
2019-02-15T10:47:00.449Z,326.25
2019-02-15T10:48:00.482Z,331.88
2019-02-15T10:49:00.509Z,360.00
2019-02-15T10:50:00.536Z,376.88
2019-02-15T10:51:00.570Z,331.88
2019-02-15T10:52:00.600Z,365.63
2019-02-15T10:53:00.628Z,371.25
2019-02-15T10:54:00.659Z,365.63
2019-02-15T10:55:00.688Z,388.13
2019-02-15T10:56:00.717Z,376.88
2019-02-15T10:57:00.748Z,393.75
2019-02-15T10:58:00.780Z,388.13
2019-02-15T10:59:00.812Z,348.75
2019-02-15T11:00:00.840Z,337.50
2019-02-15T11:01:00.867Z,382.50
2019-02-15T11:02:00.900Z,348.75
2019-02-15T11:03:00.928Z,348.75
2019-02-15T11:04:00.968Z,360.00
2019-02-15T11:05:00.988Z,337.50
2019-02-15T11:06:01.018Z,337.50
2019-02-15T11:07:01.048Z,343.13
2019-02-15T11:08:01.081Z,337.50
2019-02-15T11:09:01.109Z,320.63
2019-02-15T11:10:01.139Z,337.50
2019-02-15T11:11:01.174Z,320.63
2019-02-15T11:12:01.199Z,326.25
2019-02-15T11:13:01.231Z,315.00
2019-02-15T11:14:01.262Z,360.00
2019-02-15T11:15:01.288Z,371.25
2019-02-15T11:16:01.319Z,371.25
2019-02-15T11:17:03.129Z,365.63
2019-02-15T11:18:01.382Z,365.63
2019-02-15T11:19:01.415Z,365.63
2019-02-15T11:20:01.445Z,331.88
2019-02-15T11:21:01.471Z,371.25
2019-02-15T11:22:01.503Z,376.88
2019-02-15T11:23:01.534Z,393.75
2019-02-15T11:24:01.564Z,382.50
2019-02-15T11:25:01.593Z,365.63
2019-02-15T11:26:01.622Z,331.88
2019-02-15T11:27:01.651Z,343.13
2019-02-15T11:28:01.687Z,376.88
2019-02-15T11:29:01.716Z,371.25
2019-02-15T11:30:01.743Z,393.75
2019-02-15T11:31:01.774Z,393.75
2019-02-15T11:32:01.803Z,365.63
2019-02-15T11:33:01.834Z,416.25
2019-02-15T11:34:01.867Z,393.75
2019-02-15T11:35:01.898Z,393.75
2019-02-15T11:36:01.928Z,399.38
2019-02-15T11:37:01.996Z,393.75
2019-02-15T11:38:01.988Z,376.88
2019-02-15T11:39:02.019Z,405.00
2019-02-15T11:40:02.066Z,399.38
2019-02-15T11:41:10.702Z,393.75
2019-02-15T11:42:02.112Z,421.88
2019-02-15T11:43:02.145Z,455.63
2019-02-15T11:44:02.172Z,483.75
2019-02-15T11:45:02.202Z,489.38
2019-02-15T11:46:02.233Z,472.50
2019-02-15T11:47:02.263Z,461.25
2019-02-15T11:48:02.293Z,421.88
2019-02-15T11:49:02.324Z,438.75
2019-02-15T11:50:02.359Z,478.13
2019-02-15T11:51:02.419Z,450.00
2019-02-15T11:52:02.416Z,450.00
2019-02-15T11:53:02.447Z,399.38
2019-02-15T11:54:02.482Z,427.50
2019-02-15T11:55:02.511Z,444.38
2019-02-15T11:56:02.543Z,410.63
2019-02-15T11:57:02.579Z,421.88
2019-02-15T11:58:02.600Z,416.25
2019-02-15T11:59:02.636Z,427.50
2019-02-15T12:00:02.663Z,433.13
2019-02-15T12:01:02.692Z,427.50
2019-02-15T12:02:06.239Z,427.50
2019-02-15T12:03:02.757Z,405.00
2019-02-15T12:04:02.787Z,433.13
2019-02-15T12:05:02.818Z,416.25
2019-02-15T12:06:03.865Z,433.13
2019-02-15T12:07:02.878Z,450.00
2019-02-15T12:08:02.908Z,461.25
2019-02-15T12:09:02.939Z,444.38
2019-02-15T12:10:02.972Z,517.50
2019-02-15T12:11:03.004Z,472.50
2019-02-15T12:12:10.507Z,500.63
2019-02-15T12:13:03.064Z,483.75
2019-02-15T12:14:03.093Z,450.00
2019-02-15T12:15:03.128Z,444.38
2019-02-15T12:16:03.159Z,472.50
2019-02-15T12:17:05.632Z,478.13
2019-02-15T12:18:03.216Z,489.38
2019-02-15T12:19:03.252Z,444.38
2019-02-15T12:20:03.282Z,438.75
2019-02-15T12:21:03.313Z,483.75
2019-02-15T12:22:03.341Z,444.38
2019-02-15T12:23:03.376Z,478.13
2019-02-15T12:24:03.408Z,472.50
2019-02-15T12:25:03.441Z,427.50
2019-02-15T12:26:03.466Z,405.00
2019-02-15T12:27:03.497Z,483.75
2019-02-15T12:28:03.527Z,455.63
2019-02-15T12:29:03.560Z,461.25
2019-02-15T12:30:03.606Z,427.50
2019-02-15T12:31:03.618Z,466.88
2019-02-15T12:32:03.654Z,455.63
2019-02-15T12:33:03.680Z,461.25
2019-02-15T12:34:03.712Z,438.75
2019-02-15T12:35:03.743Z,427.50
2019-02-15T12:36:03.777Z,444.38
2019-02-15T12:37:03.806Z,450.00
2019-02-15T12:38:03.834Z,444.38
2019-02-15T12:39:03.867Z,444.38
2019-02-15T12:40:03.899Z,450.00
2019-02-15T12:41:03.934Z,450.00
2019-02-15T12:42:03.959Z,427.50
2019-02-15T12:43:03.993Z,433.13
2019-02-15T12:44:04.021Z,405.00
2019-02-15T12:45:04.053Z,393.75
2019-02-15T12:46:04.088Z,382.50
2019-02-15T12:47:04.117Z,388.13
2019-02-15T12:48:04.146Z,376.88
2019-02-15T12:49:04.177Z,371.25
2019-02-15T12:50:04.210Z,382.50
2019-02-15T12:51:04.239Z,360.00
2019-02-15T12:52:04.270Z,371.25
2019-02-15T12:53:04.301Z,354.38
2019-02-15T12:54:04.330Z,348.75